sensor_id;sensor_type;location;lat;lon;timestamp;temperature;humidity
46752;DHT22;32497;48.936;9.270;2023-04-16T00:01:05;7.60;93.40
46752;DHT22;32497;48.936;9.270;2023-04-16T00:06:09;7.60;93.40
46752;DHT22;32497;48.936;9.270;2023-04-16T00:11:11;7.50;93.30
46752;DHT22;32497;48.936;9.270;2023-04-16T00:16:12;7.60;93.40
46752;DHT22;32497;48.936;9.270;2023-04-16T00:21:14;7.60;93.40
46752;DHT22;32497;48.936;9.270;2023-04-16T00:26:15;7.60;93.40
46752;DHT22;32497;48.936;9.270;2023-04-16T00:31:25;7.60;93.40
46752;DHT22;32497;48.936;9.270;2023-04-16T00:36:28;7.60;93.30
46752;DHT22;32497;48.936;9.270;2023-04-16T00:41:29;7.60;93.10
46752;DHT22;32497;48.936;9.270;2023-04-16T00:46:30;7.60;93.20
46752;DHT22;32497;48.936;9.270;2023-04-16T00:51:34;7.50;93.30
46752;DHT22;32497;48.936;9.270;2023-04-16T00:56:36;7.50;93.30
46752;DHT22;32497;48.936;9.270;2023-04-16T01:01:37;7.50;93.30
46752;DHT22;32497;48.936;9.270;2023-04-16T01:06:40;7.50;93.20
46752;DHT22;32497;48.936;9.270;2023-04-16T01:11:41;7.60;93.30
46752;DHT22;32497;48.936;9.270;2023-04-16T01:16:42;7.50;93.30
46752;DHT22;32497;48.936;9.270;2023-04-16T01:21:44;7.60;93.20
46752;DHT22;32497;48.936;9.270;2023-04-16T01:26:45;7.60;93.30
46752;DHT22;32497;48.936;9.270;2023-04-16T01:31:47;7.60;93.20
46752;DHT22;32497;48.936;9.270;2023-04-16T01:36:57;7.60;93.30
46752;DHT22;32497;48.936;9.270;2023-04-16T01:41:58;7.60;93.20
46752;DHT22;32497;48.936;9.270;2023-04-16T01:46:59;7.60;93.20
46752;DHT22;32497;48.936;9.270;2023-04-16T01:52:02;7.60;93.10
46752;DHT22;32497;48.936;9.270;2023-04-16T01:57:04;7.60;93.10
46752;DHT22;32497;48.936;9.270;2023-04-16T02:02:08;7.60;93.20
46752;DHT22;32497;48.936;9.270;2023-04-16T02:07:11;7.60;93.20
46752;DHT22;32497;48.936;9.270;2023-04-16T02:12:13;7.60;93.20
46752;DHT22;32497;48.936;9.270;2023-04-16T02:17:15;7.60;93.20
46752;DHT22;32497;48.936;9.270;2023-04-16T02:22:18;7.60;93.40
46752;DHT22;32497;48.936;9.270;2023-04-16T02:27:19;7.50;93.30
46752;DHT22;32497;48.936;9.270;2023-04-16T02:32:24;7.50;93.30
46752;DHT22;32497;48.936;9.270;2023-04-16T02:37:26;7.60;93.30
46752;DHT22;32497;48.936;9.270;2023-04-16T02:42:28;7.60;93.30
46752;DHT22;32497;48.936;9.270;2023-04-16T02:47:29;7.50;93.30
46752;DHT22;32497;48.936;9.270;2023-04-16T02:52:31;7.60;93.20
46752;DHT22;32497;48.936;9.270;2023-04-16T02:57:32;7.50;93.10
46752;DHT22;32497;48.936;9.270;2023-04-16T03:02:33;7.60;93.20
46752;DHT22;32497;48.936;9.270;2023-04-16T03:07:36;7.60;93.40
46752;DHT22;32497;48.936;9.270;2023-04-16T03:12:37;7.50;93.40
46752;DHT22;32497;48.936;9.270;2023-04-16T03:17:41;7.60;93.30
46752;DHT22;32497;48.936;9.270;2023-04-16T03:22:45;7.60;93.30
46752;DHT22;32497;48.936;9.270;2023-04-16T03:27:47;7.60;93.30
46752;DHT22;32497;48.936;9.270;2023-04-16T03:32:49;7.50;93.50
46752;DHT22;32497;48.936;9.270;2023-04-16T03:37:52;7.50;93.50
46752;DHT22;32497;48.936;9.270;2023-04-16T03:42:53;7.60;93.60
46752;DHT22;32497;48.936;9.270;2023-04-16T03:47:55;7.50;93.50
46752;DHT22;32497;48.936;9.270;2023-04-16T03:53:00;7.50;93.50
46752;DHT22;32497;48.936;9.270;2023-04-16T03:58:02;7.50;93.60
46752;DHT22;32497;48.936;9.270;2023-04-16T04:03:05;7.50;93.70
46752;DHT22;32497;48.936;9.270;2023-04-16T04:08:10;7.60;93.70
46752;DHT22;32497;48.936;9.270;2023-04-16T04:13:11;7.50;93.60
46752;DHT22;32497;48.936;9.270;2023-04-16T04:18:13;7.50;93.60
46752;DHT22;32497;48.936;9.270;2023-04-16T04:23:15;7.60;93.60
46752;DHT22;32497;48.936;9.270;2023-04-16T04:28:16;7.60;93.70
46752;DHT22;32497;48.936;9.270;2023-04-16T04:33:18;7.60;93.60
46752;DHT22;32497;48.936;9.270;2023-04-16T04:38:20;7.60;93.50
46752;DHT22;32497;48.936;9.270;2023-04-16T04:43:23;7.50;93.50
46752;DHT22;32497;48.936;9.270;2023-04-16T04:48:24;7.50;93.50
46752;DHT22;32497;48.936;9.270;2023-04-16T04:53:27;7.60;93.60
46752;DHT22;32497;48.936;9.270;2023-04-16T04:58:29;7.50;93.60
46752;DHT22;32497;48.936;9.270;2023-04-16T05:03:31;7.50;93.50
46752;DHT22;32497;48.936;9.270;2023-04-16T05:08:33;7.40;93.60
46752;DHT22;32497;48.936;9.270;2023-04-16T05:13:34;7.50;93.70
46752;DHT22;32497;48.936;9.270;2023-04-16T05:18:35;7.40;93.60
46752;DHT22;32497;48.936;9.270;2023-04-16T05:23:38;7.40;93.60
46752;DHT22;32497;48.936;9.270;2023-04-16T05:28:39;7.50;93.80
46752;DHT22;32497;48.936;9.270;2023-04-16T05:33:40;7.40;93.70
46752;DHT22;32497;48.936;9.270;2023-04-16T05:38:42;7.50;93.80
46752;DHT22;32497;48.936;9.270;2023-04-16T05:43:43;7.50;93.60
46752;DHT22;32497;48.936;9.270;2023-04-16T05:48:45;7.60;93.70
46752;DHT22;32497;48.936;9.270;2023-04-16T05:53:47;7.60;93.60
46752;DHT22;32497;48.936;9.270;2023-04-16T05:58:48;7.60;93.50
46752;DHT22;32497;48.936;9.270;2023-04-16T06:03:49;7.60;93.50
46752;DHT22;32497;48.936;9.270;2023-04-16T06:08:52;7.70;93.40
46752;DHT22;32497;48.936;9.270;2023-04-16T06:13:53;7.60;93.40
46752;DHT22;32497;48.936;9.270;2023-04-16T06:18:54;7.70;93.40
46752;DHT22;32497;48.936;9.270;2023-04-16T06:23:56;7.70;93.10
46752;DHT22;32497;48.936;9.270;2023-04-16T06:28:57;7.70;93.20
46752;DHT22;32497;48.936;9.270;2023-04-16T06:33:58;7.80;93.30
46752;DHT22;32497;48.936;9.270;2023-04-16T06:39:01;7.70;93.00
46752;DHT22;32497;48.936;9.270;2023-04-16T06:44:02;7.80;93.00
46752;DHT22;32497;48.936;9.270;2023-04-16T06:49:03;7.80;93.00
46752;DHT22;32497;48.936;9.270;2023-04-16T06:54:05;7.90;92.90
46752;DHT22;32497;48.936;9.270;2023-04-16T06:59:25;7.90;93.00
46752;DHT22;32497;48.936;9.270;2023-04-16T07:09:49;7.90;92.80
46752;DHT22;32497;48.936;9.270;2023-04-16T07:20:47;8.00;92.70
46752;DHT22;32497;48.936;9.270;2023-04-16T07:25:56;8.10;92.80
46752;DHT22;32497;48.936;9.270;2023-04-16T07:30:57;8.10;92.30
46752;DHT22;32497;48.936;9.270;2023-04-16T07:36:13;7.80;92.50
46752;DHT22;32497;48.936;9.270;2023-04-16T07:41:15;7.80;92.90
46752;DHT22;32497;48.936;9.270;2023-04-16T07:46:16;7.80;92.80
46752;DHT22;32497;48.936;9.270;2023-04-16T07:51:23;7.90;92.70
46752;DHT22;32497;48.936;9.270;2023-04-16T08:02:48;7.90;92.60
46752;DHT22;32497;48.936;9.270;2023-04-16T08:07:52;7.90;92.50
46752;DHT22;32497;48.936;9.270;2023-04-16T08:19:34;8.00;92.40
46752;DHT22;32497;48.936;9.270;2023-04-16T08:24:59;8.10;92.20
46752;DHT22;32497;48.936;9.270;2023-04-16T08:30:31;8.20;92.10
46752;DHT22;32497;48.936;9.270;2023-04-16T08:35:37;8.20;91.80
46752;DHT22;32497;48.936;9.270;2023-04-16T08:41:06;8.20;91.80
46752;DHT22;32497;48.936;9.270;2023-04-16T08:46:10;8.20;91.60
46752;DHT22;32497;48.936;9.270;2023-04-16T08:51:33;8.30;91.80
46752;DHT22;32497;48.936;9.270;2023-04-16T08:56:53;8.40;91.50
46752;DHT22;32497;48.936;9.270;2023-04-16T09:02:03;8.40;91.20
46752;DHT22;32497;48.936;9.270;2023-04-16T09:12:59;8.30;91.70
46752;DHT22;32497;48.936;9.270;2023-04-16T09:24:23;8.30;91.40
46752;DHT22;32497;48.936;9.270;2023-04-16T09:30:02;8.30;91.80
46752;DHT22;32497;48.936;9.270;2023-04-16T09:35:45;8.20;92.00
46752;DHT22;32497;48.936;9.270;2023-04-16T09:41:04;8.20;92.10
46752;DHT22;32497;48.936;9.270;2023-04-16T09:46:06;8.20;92.50
46752;DHT22;32497;48.936;9.270;2023-04-16T09:51:10;8.20;92.40
46752;DHT22;32497;48.936;9.270;2023-04-16T09:56:13;8.20;92.30
46752;DHT22;32497;48.936;9.270;2023-04-16T10:01:16;8.20;92.30
46752;DHT22;32497;48.936;9.270;2023-04-16T10:06:18;8.40;92.30
46752;DHT22;32497;48.936;9.270;2023-04-16T10:11:21;8.40;92.30
46752;DHT22;32497;48.936;9.270;2023-04-16T10:16:23;8.30;91.70
46752;DHT22;32497;48.936;9.270;2023-04-16T10:21:25;8.20;91.50
46752;DHT22;32497;48.936;9.270;2023-04-16T10:26:28;8.30;92.30
46752;DHT22;32497;48.936;9.270;2023-04-16T10:31:30;8.20;92.20
46752;DHT22;32497;48.936;9.270;2023-04-16T10:36:35;8.30;92.50
46752;DHT22;32497;48.936;9.270;2023-04-16T10:41:38;8.40;92.40
46752;DHT22;32497;48.936;9.270;2023-04-16T10:46:40;8.40;92.20
46752;DHT22;32497;48.936;9.270;2023-04-16T10:51:41;8.40;92.30
46752;DHT22;32497;48.936;9.270;2023-04-16T10:56:46;8.30;92.20
46752;DHT22;32497;48.936;9.270;2023-04-16T11:01:49;8.40;92.10
46752;DHT22;32497;48.936;9.270;2023-04-16T11:07:00;8.30;92.10
46752;DHT22;32497;48.936;9.270;2023-04-16T11:12:06;8.30;92.30
46752;DHT22;32497;48.936;9.270;2023-04-16T11:17:08;8.40;92.60
46752;DHT22;32497;48.936;9.270;2023-04-16T11:22:12;8.40;92.30
46752;DHT22;32497;48.936;9.270;2023-04-16T11:27:15;8.40;92.50
46752;DHT22;32497;48.936;9.270;2023-04-16T11:32:19;8.50;92.20
46752;DHT22;32497;48.936;9.270;2023-04-16T11:37:30;8.40;91.90
46752;DHT22;32497;48.936;9.270;2023-04-16T11:42:33;8.40;92.20
46752;DHT22;32497;48.936;9.270;2023-04-16T11:47:42;8.50;92.30
46752;DHT22;32497;48.936;9.270;2023-04-16T11:52:44;8.50;92.20
46752;DHT22;32497;48.936;9.270;2023-04-16T11:57:46;8.50;91.90
46752;DHT22;32497;48.936;9.270;2023-04-16T12:02:49;8.40;92.30
46752;DHT22;32497;48.936;9.270;2023-04-16T12:07:51;8.50;92.40
46752;DHT22;32497;48.936;9.270;2023-04-16T12:12:53;8.60;92.50
46752;DHT22;32497;48.936;9.270;2023-04-16T12:18:05;8.70;92.00
46752;DHT22;32497;48.936;9.270;2023-04-16T12:23:07;8.60;91.90
46752;DHT22;32497;48.936;9.270;2023-04-16T12:28:09;8.70;92.20
46752;DHT22;32497;48.936;9.270;2023-04-16T12:33:14;8.70;92.40
46752;DHT22;32497;48.936;9.270;2023-04-16T12:38:16;8.80;92.20
46752;DHT22;32497;48.936;9.270;2023-04-16T12:43:19;8.70;92.10
46752;DHT22;32497;48.936;9.270;2023-04-16T12:48:20;8.80;92.20
46752;DHT22;32497;48.936;9.270;2023-04-16T12:53:22;8.90;92.20
46752;DHT22;32497;48.936;9.270;2023-04-16T12:58:24;8.80;91.90
46752;DHT22;32497;48.936;9.270;2023-04-16T13:03:26;8.80;92.40
46752;DHT22;32497;48.936;9.270;2023-04-16T13:08:27;8.90;92.10
46752;DHT22;32497;48.936;9.270;2023-04-16T13:13:30;8.90;92.20
46752;DHT22;32497;48.936;9.270;2023-04-16T13:18:31;9.00;92.20
46752;DHT22;32497;48.936;9.270;2023-04-16T13:23:33;9.10;92.00
46752;DHT22;32497;48.936;9.270;2023-04-16T13:28:36;9.10;91.80
46752;DHT22;32497;48.936;9.270;2023-04-16T13:33:37;9.20;91.50
46752;DHT22;32497;48.936;9.270;2023-04-16T13:38:38;9.20;91.40
46752;DHT22;32497;48.936;9.270;2023-04-16T13:43:41;9.40;91.60
46752;DHT22;32497;48.936;9.270;2023-04-16T13:48:42;9.20;91.40
46752;DHT22;32497;48.936;9.270;2023-04-16T13:53:43;9.20;91.90
46752;DHT22;32497;48.936;9.270;2023-04-16T13:58:45;9.30;91.80
46752;DHT22;32497;48.936;9.270;2023-04-16T14:03:46;9.10;91.50
46752;DHT22;32497;48.936;9.270;2023-04-16T14:08:48;9.10;91.90
46752;DHT22;32497;48.936;9.270;2023-04-16T14:13:51;9.10;92.10
46752;DHT22;32497;48.936;9.270;2023-04-16T14:18:52;9.10;91.90
46752;DHT22;32497;48.936;9.270;2023-04-16T14:23:53;9.10;92.20
46752;DHT22;32497;48.936;9.270;2023-04-16T14:28:55;9.10;92.10
46752;DHT22;32497;48.936;9.270;2023-04-16T14:33:57;9.10;92.30
46752;DHT22;32497;48.936;9.270;2023-04-16T14:38:58;9.10;92.50
46752;DHT22;32497;48.936;9.270;2023-04-16T14:44:00;9.10;92.40
46752;DHT22;32497;48.936;9.270;2023-04-16T14:49:01;9.30;92.40
46752;DHT22;32497;48.936;9.270;2023-04-16T14:54:03;9.20;92.00
46752;DHT22;32497;48.936;9.270;2023-04-16T14:59:05;9.10;92.00
46752;DHT22;32497;48.936;9.270;2023-04-16T15:04:06;9.10;92.50
46752;DHT22;32497;48.936;9.270;2023-04-16T15:09:08;9.10;92.60
46752;DHT22;32497;48.936;9.270;2023-04-16T15:14:10;9.10;92.70
46752;DHT22;32497;48.936;9.270;2023-04-16T15:19:11;9.10;92.90
46752;DHT22;32497;48.936;9.270;2023-04-16T15:24:12;9.10;92.90
46752;DHT22;32497;48.936;9.270;2023-04-16T15:29:15;9.10;92.90
46752;DHT22;32497;48.936;9.270;2023-04-16T15:34:16;9.00;92.90
46752;DHT22;32497;48.936;9.270;2023-04-16T15:39:17;9.10;93.20
46752;DHT22;32497;48.936;9.270;2023-04-16T15:44:19;9.10;93.20
46752;DHT22;32497;48.936;9.270;2023-04-16T15:49:21;9.10;93.20
46752;DHT22;32497;48.936;9.270;2023-04-16T15:54:22;9.10;93.30
46752;DHT22;32497;48.936;9.270;2023-04-16T15:59:25;9.10;93.40
46752;DHT22;32497;48.936;9.270;2023-04-16T16:04:26;9.10;93.30
46752;DHT22;32497;48.936;9.270;2023-04-16T16:09:27;9.00;93.20
46752;DHT22;32497;48.936;9.270;2023-04-16T16:14:29;9.10;93.30
46752;DHT22;32497;48.936;9.270;2023-04-16T16:19:31;9.10;93.40
46752;DHT22;32497;48.936;9.270;2023-04-16T16:24:32;9.10;93.30
46752;DHT22;32497;48.936;9.270;2023-04-16T16:29:35;9.10;93.20
46752;DHT22;32497;48.936;9.270;2023-04-16T16:34:36;9.10;93.00
46752;DHT22;32497;48.936;9.270;2023-04-16T16:39:37;9.10;93.20
46752;DHT22;32497;48.936;9.270;2023-04-16T16:44:39;9.10;93.10
46752;DHT22;32497;48.936;9.270;2023-04-16T16:49:40;9.10;93.00
46752;DHT22;32497;48.936;9.270;2023-04-16T16:54:41;9.10;93.10
46752;DHT22;32497;48.936;9.270;2023-04-16T16:59:44;9.10;93.20
46752;DHT22;32497;48.936;9.270;2023-04-16T17:04:45;9.00;93.20
46752;DHT22;32497;48.936;9.270;2023-04-16T17:09:47;9.00;93.20
46752;DHT22;32497;48.936;9.270;2023-04-16T17:14:50;9.00;93.30
46752;DHT22;32497;48.936;9.270;2023-04-16T17:19:51;9.00;93.30
46752;DHT22;32497;48.936;9.270;2023-04-16T17:24:52;9.00;93.40
46752;DHT22;32497;48.936;9.270;2023-04-16T17:29:54;9.10;93.40
46752;DHT22;32497;48.936;9.270;2023-04-16T17:34:55;9.10;93.40
46752;DHT22;32497;48.936;9.270;2023-04-16T17:39:57;9.10;93.40
46752;DHT22;32497;48.936;9.270;2023-04-16T17:44:59;9.10;93.30
46752;DHT22;32497;48.936;9.270;2023-04-16T17:50:00;9.10;93.20
46752;DHT22;32497;48.936;9.270;2023-04-16T17:55:01;9.00;93.30
46752;DHT22;32497;48.936;9.270;2023-04-16T18:00:05;9.00;93.50
46752;DHT22;32497;48.936;9.270;2023-04-16T18:05:12;9.00;93.50
46752;DHT22;32497;48.936;9.270;2023-04-16T18:10:13;9.00;93.50
46752;DHT22;32497;48.936;9.270;2023-04-16T18:15:16;8.90;93.50
46752;DHT22;32497;48.936;9.270;2023-04-16T18:20:17;8.90;93.60
46752;DHT22;32497;48.936;9.270;2023-04-16T18:25:18;8.90;93.60
46752;DHT22;32497;48.936;9.270;2023-04-16T18:30:21;8.90;93.50
46752;DHT22;32497;48.936;9.270;2023-04-16T18:35:22;9.00;93.50
46752;DHT22;32497;48.936;9.270;2023-04-16T18:40:23;8.90;93.50
46752;DHT22;32497;48.936;9.270;2023-04-16T18:45:25;8.90;93.40
46752;DHT22;32497;48.936;9.270;2023-04-16T18:50:27;9.00;93.40
46752;DHT22;32497;48.936;9.270;2023-04-16T18:55:28;8.90;93.40
46752;DHT22;32497;48.936;9.270;2023-04-16T19:00:30;8.90;93.50
46752;DHT22;32497;48.936;9.270;2023-04-16T19:05:31;8.90;93.60
46752;DHT22;32497;48.936;9.270;2023-04-16T19:10:33;8.90;93.50
46752;DHT22;32497;48.936;9.270;2023-04-16T19:15:35;8.90;93.40
46752;DHT22;32497;48.936;9.270;2023-04-16T19:20:36;8.80;93.50
46752;DHT22;32497;48.936;9.270;2023-04-16T19:25:38;8.80;93.50
46752;DHT22;32497;48.936;9.270;2023-04-16T19:30:42;8.80;93.40
46752;DHT22;32497;48.936;9.270;2023-04-16T19:35:43;8.80;93.40
46752;DHT22;32497;48.936;9.270;2023-04-16T19:40:44;8.80;93.30
46752;DHT22;32497;48.936;9.270;2023-04-16T19:45:48;8.70;93.30
46752;DHT22;32497;48.936;9.270;2023-04-16T19:50:49;8.80;93.40
46752;DHT22;32497;48.936;9.270;2023-04-16T19:55:51;8.80;93.20
46752;DHT22;32497;48.936;9.270;2023-04-16T20:00:53;8.80;93.20
46752;DHT22;32497;48.936;9.270;2023-04-16T20:05:54;8.80;93.20
46752;DHT22;32497;48.936;9.270;2023-04-16T20:10:57;8.70;93.20
46752;DHT22;32497;48.936;9.270;2023-04-16T20:15:59;8.70;92.90
46752;DHT22;32497;48.936;9.270;2023-04-16T20:21:02;8.70;92.80
46752;DHT22;32497;48.936;9.270;2023-04-16T20:26:03;8.70;92.80
46752;DHT22;32497;48.936;9.270;2023-04-16T20:31:06;8.70;92.90
46752;DHT22;32497;48.936;9.270;2023-04-16T20:36:07;8.70;92.80
46752;DHT22;32497;48.936;9.270;2023-04-16T20:41:08;8.60;92.90
46752;DHT22;32497;48.936;9.270;2023-04-16T20:46:11;8.70;92.90
46752;DHT22;32497;48.936;9.270;2023-04-16T20:51:12;8.70;92.90
46752;DHT22;32497;48.936;9.270;2023-04-16T20:56:13;8.60;93.00
46752;DHT22;32497;48.936;9.270;2023-04-16T21:01:16;8.60;92.90
46752;DHT22;32497;48.936;9.270;2023-04-16T21:06:17;8.70;93.00
46752;DHT22;32497;48.936;9.270;2023-04-16T21:11:18;8.60;93.00
46752;DHT22;32497;48.936;9.270;2023-04-16T21:16:20;8.70;92.90
46752;DHT22;32497;48.936;9.270;2023-04-16T21:21:21;8.70;92.90
46752;DHT22;32497;48.936;9.270;2023-04-16T21:26:22;8.70;92.80
46752;DHT22;32497;48.936;9.270;2023-04-16T21:31:25;8.70;92.90
46752;DHT22;32497;48.936;9.270;2023-04-16T21:36:26;8.70;92.70
46752;DHT22;32497;48.936;9.270;2023-04-16T21:41:27;8.60;92.80
46752;DHT22;32497;48.936;9.270;2023-04-16T21:46:30;8.70;92.80
46752;DHT22;32497;48.936;9.270;2023-04-16T21:51:31;8.70;92.70
46752;DHT22;32497;48.936;9.270;2023-04-16T21:56:32;8.70;92.60
46752;DHT22;32497;48.936;9.270;2023-04-16T22:01:34;8.60;92.60
46752;DHT22;32497;48.936;9.270;2023-04-16T22:06:35;8.70;92.60
46752;DHT22;32497;48.936;9.270;2023-04-16T22:11:36;8.60;92.50
46752;DHT22;32497;48.936;9.270;2023-04-16T22:16:39;8.60;92.50
46752;DHT22;32497;48.936;9.270;2023-04-16T22:21:40;8.60;92.60
46752;DHT22;32497;48.936;9.270;2023-04-16T22:26:41;8.60;92.60
46752;DHT22;32497;48.936;9.270;2023-04-16T22:31:43;8.60;92.80
46752;DHT22;32497;48.936;9.270;2023-04-16T22:36:44;8.60;92.80
46752;DHT22;32497;48.936;9.270;2023-04-16T22:41:46;8.60;92.70
46752;DHT22;32497;48.936;9.270;2023-04-16T22:46:48;8.60;92.50
46752;DHT22;32497;48.936;9.270;2023-04-16T22:51:49;8.60;92.60
46752;DHT22;32497;48.936;9.270;2023-04-16T22:56:50;8.60;92.50
46752;DHT22;32497;48.936;9.270;2023-04-16T23:01:52;8.50;92.50
46752;DHT22;32497;48.936;9.270;2023-04-16T23:06:54;8.50;92.60
46752;DHT22;32497;48.936;9.270;2023-04-16T23:11:55;8.50;92.60
46752;DHT22;32497;48.936;9.270;2023-04-16T23:16:57;8.50;92.30
46752;DHT22;32497;48.936;9.270;2023-04-16T23:21:58;8.50;92.20
46752;DHT22;32497;48.936;9.270;2023-04-16T23:26:59;8.50;92.30
46752;DHT22;32497;48.936;9.270;2023-04-16T23:32:02;8.60;92.30
46752;DHT22;32497;48.936;9.270;2023-04-16T23:37:03;8.50;92.40
46752;DHT22;32497;48.936;9.270;2023-04-16T23:42:04;8.50;92.40
46752;DHT22;32497;48.936;9.270;2023-04-16T23:47:07;8.50;92.30
46752;DHT22;32497;48.936;9.270;2023-04-16T23:52:08;8.40;92.40
46752;DHT22;32497;48.936;9.270;2023-04-16T23:57:09;8.40;92.50
